createdAt,value
2022-11-21T00:03:11.272Z,6.23
2022-11-21T00:08:14.318Z,6.16
2022-11-21T00:13:18.481Z,6.34
2022-11-21T00:18:20.323Z,6.32
2022-11-21T00:23:22.105Z,6.43
2022-11-21T00:28:25.311Z,6.20
2022-11-21T00:33:27.001Z,6.23
2022-11-21T00:38:28.740Z,6.08
2022-11-21T00:43:31.783Z,6.01
2022-11-21T00:48:33.540Z,5.78
2022-11-21T00:53:35.276Z,5.88
2022-11-21T00:58:38.391Z,6.12
2022-11-21T01:03:40.198Z,6.26
2022-11-21T01:08:43.304Z,6.17
2022-11-21T01:13:46.937Z,6.13
2022-11-21T01:18:49.029Z,5.88
2022-11-21T01:23:50.868Z,5.96
2022-11-21T01:28:53.983Z,5.98
2022-11-21T01:33:58.335Z,5.99
2022-11-21T01:39:01.156Z,6.21
2022-11-21T01:44:10.701Z,6.02
2022-11-21T01:49:13.768Z,6.00
2022-11-21T01:54:17.850Z,5.88
2022-11-21T01:59:22.692Z,5.73
2022-11-21T02:04:25.523Z,5.65
2022-11-21T02:09:27.604Z,5.49
2022-11-21T02:14:30.711Z,5.68
2022-11-21T02:19:35.406Z,5.35
2022-11-21T02:24:39.804Z,5.30
2022-11-21T02:29:42.959Z,5.09
2022-11-21T02:34:44.689Z,5.17
2022-11-21T02:39:46.425Z,5.04
2022-11-21T02:44:53.770Z,4.96
2022-11-21T02:49:58.098Z,4.94
2022-11-21T02:54:59.849Z,5.06
2022-11-21T03:00:03.575Z,4.99
2022-11-21T03:05:06.988Z,4.93
2022-11-21T03:10:09.347Z,4.98
2022-11-21T03:15:13.297Z,4.87
2022-11-21T03:20:15.486Z,4.97
2022-11-21T03:25:17.831Z,4.74
2022-11-21T03:30:21.232Z,4.71
2022-11-21T03:35:23.052Z,4.72
2022-11-21T03:40:24.869Z,4.94
2022-11-21T03:45:28.440Z,4.64
2022-11-21T03:50:30.297Z,4.46
2022-11-21T03:55:32.033Z,4.16
2022-11-21T04:00:35.134Z,4.14
2022-11-21T04:05:36.891Z,3.93
2022-11-21T04:10:38.731Z,3.92
2022-11-21T04:15:42.458Z,3.59
2022-11-21T04:20:44.367Z,3.90
2022-11-21T04:25:46.136Z,3.77
2022-11-21T04:30:49.285Z,4.23
2022-11-21T04:35:51.066Z,4.27
2022-11-21T04:40:52.836Z,4.01
2022-11-21T04:45:55.924Z,4.00
2022-11-21T04:50:57.987Z,4.21
2022-11-21T04:56:00.206Z,4.04
2022-11-21T05:01:07.819Z,4.55
2022-11-21T05:06:09.671Z,4.65
2022-11-21T05:11:30.303Z,4.65
2022-11-21T05:16:33.849Z,4.78
2022-11-21T05:21:35.677Z,5.03
2022-11-21T05:26:38.107Z,5.13
2022-11-21T05:31:41.366Z,5.10
2022-11-21T05:36:43.179Z,5.12
2022-11-21T05:41:44.925Z,4.89
2022-11-21T05:46:47.990Z,4.99
2022-11-21T05:51:49.748Z,5.01
2022-11-21T05:56:51.498Z,4.97
2022-11-21T06:02:13.461Z,4.98
2022-11-21T06:07:15.240Z,4.84
2022-11-21T06:12:20.272Z,4.81
2022-11-21T06:17:25.957Z,4.64
2022-11-21T06:22:27.678Z,4.66
2022-11-21T06:27:29.366Z,4.53
2022-11-21T06:32:36.064Z,4.38
2022-11-21T06:37:37.765Z,4.35
2022-11-21T06:42:39.487Z,4.35
2022-11-21T06:47:42.903Z,4.75
2022-11-21T06:52:44.641Z,4.74
2022-11-21T06:57:46.382Z,4.59
2022-11-21T07:02:49.507Z,4.53
2022-11-21T07:07:51.242Z,4.33
2022-11-21T07:13:12.754Z,4.41
2022-11-21T07:18:15.915Z,4.35
2022-11-21T07:23:17.657Z,4.07
2022-11-21T07:28:19.455Z,4.07
2022-11-21T07:33:22.609Z,4.13
2022-11-21T07:38:24.440Z,3.78
2022-11-21T07:43:26.199Z,3.70
2022-11-21T07:48:29.466Z,3.85
2022-11-21T07:53:32.287Z,3.86
2022-11-21T07:58:34.108Z,4.15
2022-11-21T08:03:37.270Z,4.54
2022-11-21T08:08:39.143Z,4.69
2022-11-21T08:13:40.871Z,5.02
2022-11-21T08:18:44.003Z,4.97
2022-11-21T08:23:45.743Z,5.29
2022-11-21T08:28:47.698Z,5.31
2022-11-21T08:33:50.836Z,5.40
2022-11-21T08:38:52.544Z,5.61
2022-11-21T08:43:54.282Z,5.08
2022-11-21T08:48:57.382Z,4.95
2022-11-21T08:53:59.550Z,5.23
2022-11-21T08:59:01.262Z,5.78
2022-11-21T09:04:04.592Z,5.98
2022-11-21T09:09:06.529Z,6.69
2022-11-21T09:14:27.245Z,7.80
2022-11-21T09:19:30.855Z,8.46
2022-11-21T09:24:32.860Z,8.95
2022-11-21T09:29:34.579Z,9.15
2022-11-21T09:34:37.758Z,8.79
2022-11-21T09:39:39.513Z,8.17
2022-11-21T09:45:03.983Z,7.66
2022-11-21T09:50:19.475Z,7.54
2022-11-21T09:55:24.287Z,7.23
2022-11-21T10:00:26.151Z,7.02
2022-11-21T10:05:35.266Z,6.88
2022-11-21T10:10:46.622Z,7.04
2022-11-21T10:15:54.665Z,7.04
2022-11-21T10:21:00.531Z,6.90
2022-11-21T10:26:09.845Z,7.33
2022-11-21T10:31:12.081Z,7.61
2022-11-21T10:36:20.918Z,7.69
2022-11-21T10:41:37.003Z,7.69
2022-11-21T10:46:38.759Z,7.74
2022-11-21T10:51:44.158Z,7.51
2022-11-21T10:56:45.871Z,7.35
2022-11-21T11:01:54.716Z,7.24
2022-11-21T11:06:59.937Z,7.42
2022-11-21T11:12:42.584Z,7.49
2022-11-21T11:17:44.349Z,7.50
2022-11-21T11:22:48.125Z,7.37
2022-11-21T11:27:49.981Z,6.88
2022-11-21T11:32:51.721Z,7.20
2022-11-21T11:37:59.532Z,7.13
2022-11-21T11:43:39.216Z,7.17
2022-11-21T11:49:03.740Z,7.43
2022-11-21T11:54:07.821Z,7.91
2022-11-21T11:59:13.288Z,8.08
2022-11-21T12:04:16.305Z,8.38
2022-11-21T12:09:23.293Z,8.60
2022-11-21T12:14:55.324Z,8.90
2022-11-21T12:19:57.063Z,9.16
2022-11-21T12:25:00.446Z,9.01
2022-11-21T12:30:32.584Z,9.30
2022-11-21T12:35:50.612Z,9.30
2022-11-21T12:40:59.099Z,9.79
2022-11-21T12:46:03.026Z,10.00
2022-11-21T12:51:52.213Z,10.19
2022-11-21T12:56:57.953Z,10.19
2022-11-21T13:02:03.092Z,10.12
2022-11-21T13:07:07.072Z,10.10
2022-11-21T13:12:13.379Z,9.62
2022-11-21T13:17:26.283Z,8.82
2022-11-21T13:22:56.714Z,9.14
2022-11-21T13:28:22.772Z,9.08
2022-11-21T13:33:52.786Z,9.57
2022-11-21T13:39:33.345Z,9.27
2022-11-21T13:44:40.605Z,8.85
2022-11-21T13:49:46.985Z,8.89
2022-11-21T13:55:18.430Z,8.81
2022-11-21T14:00:32.762Z,8.85
2022-11-21T14:05:47.906Z,8.63
2022-11-21T14:10:50.618Z,8.71
2022-11-21T14:16:05.487Z,8.78
2022-11-21T14:21:09.084Z,8.86
2022-11-21T14:26:12.111Z,8.71
2022-11-21T14:31:15.315Z,8.83
2022-11-21T14:36:18.548Z,8.35
2022-11-21T14:41:25.829Z,8.19
2022-11-21T14:46:29.661Z,7.75
2022-11-21T14:51:31.401Z,7.46
2022-11-21T14:56:33.332Z,7.53
2022-11-21T15:01:36.749Z,6.90
2022-11-21T15:06:40.767Z,7.01
2022-11-21T15:11:43.986Z,6.73
2022-11-21T15:16:47.893Z,6.61
2022-11-21T15:21:50.239Z,6.64
2022-11-21T15:26:51.997Z,6.44
2022-11-21T15:32:08.051Z,6.00
2022-11-21T15:37:13.060Z,5.64
2022-11-21T15:42:27.994Z,4.98
2022-11-21T15:47:31.150Z,5.26
2022-11-21T15:52:36.877Z,5.85
2022-11-21T15:57:38.628Z,5.58
2022-11-21T16:02:41.776Z,6.09
2022-11-21T16:07:43.634Z,5.28
2022-11-21T16:12:45.457Z,5.27
2022-11-21T16:17:48.558Z,5.14
2022-11-21T16:22:50.360Z,5.35
2022-11-21T16:27:52.123Z,5.40
2022-11-21T16:32:56.231Z,5.93
2022-11-21T16:37:58.062Z,5.49
2022-11-21T16:43:07.643Z,5.18
2022-11-21T16:48:10.812Z,4.95
2022-11-21T16:53:12.974Z,5.08
2022-11-21T16:58:14.864Z,5.15
2022-11-21T17:03:18.034Z,5.29
2022-11-21T17:08:19.871Z,5.15
2022-11-21T17:13:21.649Z,5.22
2022-11-21T17:18:24.831Z,5.14
2022-11-21T17:23:26.684Z,5.26
2022-11-21T17:28:28.488Z,5.21
2022-11-21T17:33:31.703Z,5.35
2022-11-21T17:38:33.500Z,5.26
2022-11-21T17:43:35.299Z,5.19
2022-11-21T17:48:38.578Z,5.11
2022-11-21T17:53:41.818Z,4.89
2022-11-21T17:58:43.550Z,4.80
2022-11-21T18:03:47.107Z,4.88
2022-11-21T18:08:49.063Z,5.08
2022-11-21T18:13:50.824Z,5.16
2022-11-21T18:18:54.052Z,5.05
2022-11-21T18:23:57.323Z,5.05
2022-11-21T18:29:34.641Z,5.29
2022-11-21T18:34:23.206Z,4.75
2022-11-21T18:39:26.759Z,5.07
2022-11-21T18:47:20.514Z,5.20
2022-11-21T18:52:22.833Z,5.29
2022-11-21T18:57:24.750Z,5.27
2022-11-21T19:02:28.119Z,4.60
2022-11-21T19:07:29.973Z,4.63
2022-11-21T19:12:36.257Z,4.07
2022-11-21T19:17:42.394Z,4.81
2022-11-21T19:22:44.180Z,4.67
2022-11-21T19:27:45.954Z,4.75
2022-11-21T19:32:49.055Z,4.15
2022-11-21T19:37:50.891Z,4.08
2022-11-21T19:42:52.747Z,4.44
2022-11-21T19:47:58.281Z,4.62
2022-11-21T19:53:00.159Z,4.61
2022-11-21T19:58:01.941Z,4.71
2022-11-21T20:03:05.161Z,4.70
2022-11-21T20:08:16.398Z,4.43
2022-11-21T20:13:19.353Z,4.37
2022-11-21T20:18:22.772Z,4.38
2022-11-21T20:23:24.596Z,4.65
2022-11-21T20:28:26.623Z,4.65
2022-11-21T20:33:29.781Z,4.59
2022-11-21T20:38:31.983Z,4.78
2022-11-21T20:44:10.558Z,4.92
2022-11-21T20:48:57.909Z,4.89
2022-11-21T20:54:03.358Z,4.92
2022-11-21T20:59:05.818Z,4.89
2022-11-21T21:04:12.095Z,4.97
2022-11-21T21:09:14.200Z,5.16
2022-11-21T21:14:15.956Z,5.23
2022-11-21T21:19:19.236Z,5.23
2022-11-21T21:24:21.116Z,5.32
2022-11-21T21:29:23.169Z,5.20
2022-11-21T21:34:26.302Z,5.41
2022-11-21T21:39:28.199Z,5.37
2022-11-21T21:44:33.399Z,5.47
2022-11-21T21:49:37.124Z,5.73
2022-11-21T21:54:38.877Z,5.77
2022-11-21T21:59:40.835Z,5.58
2022-11-21T22:04:46.973Z,5.86
2022-11-21T22:09:52.391Z,6.10
2022-11-21T22:14:54.141Z,5.95
2022-11-21T22:19:57.275Z,5.70
2022-11-21T22:24:59.085Z,5.70
2022-11-21T22:30:00.870Z,6.03
2022-11-21T22:35:04.427Z,5.57
2022-11-21T22:40:07.020Z,5.68
2022-11-21T22:45:09.907Z,5.71
2022-11-21T22:50:13.377Z,6.07
2022-11-21T22:55:15.263Z,6.07
2022-11-21T23:00:18.148Z,5.96
2022-11-21T23:05:21.301Z,5.96
2022-11-21T23:10:23.085Z,6.39
2022-11-21T23:15:24.982Z,6.21
2022-11-21T23:20:28.154Z,5.96
2022-11-21T23:25:30.219Z,5.89
2022-11-21T23:30:32.053Z,6.34
2022-11-21T23:35:35.129Z,6.31
2022-11-21T23:40:36.978Z,6.39
2022-11-21T23:45:38.790Z,6.25
2022-11-21T23:50:41.935Z,6.18
2022-11-21T23:55:43.913Z,6.39
